sensor_id;sensor_type;location;lat;lon;timestamp;temperature;humidity
20418;DHT22;10368;51.436;6.774;2022-11-20T00:01:24;0.50;99.90
20418;DHT22;10368;51.436;6.774;2022-11-20T00:03:53;0.40;99.90
20418;DHT22;10368;51.436;6.774;2022-11-20T00:06:20;0.50;99.90
20418;DHT22;10368;51.436;6.774;2022-11-20T00:08:48;0.50;99.90
20418;DHT22;10368;51.436;6.774;2022-11-20T00:11:19;0.50;99.90
20418;DHT22;10368;51.436;6.774;2022-11-20T00:13:48;0.30;99.90
20418;DHT22;10368;51.436;6.774;2022-11-20T00:16:18;0.40;99.90
20418;DHT22;10368;51.436;6.774;2022-11-20T00:18:46;0.30;99.90
20418;DHT22;10368;51.436;6.774;2022-11-20T00:21:15;0.40;99.90
20418;DHT22;10368;51.436;6.774;2022-11-20T00:23:43;0.30;99.90
20418;DHT22;10368;51.436;6.774;2022-11-20T00:26:12;0.30;99.90
20418;DHT22;10368;51.436;6.774;2022-11-20T00:28:39;0.20;99.90
20418;DHT22;10368;51.436;6.774;2022-11-20T00:31:14;0.30;99.90
20418;DHT22;10368;51.436;6.774;2022-11-20T00:33:42;0.20;99.90
20418;DHT22;10368;51.436;6.774;2022-11-20T00:36:18;0.20;99.90
20418;DHT22;10368;51.436;6.774;2022-11-20T00:38:45;0.40;99.90
20418;DHT22;10368;51.436;6.774;2022-11-20T00:41:15;0.30;99.90
20418;DHT22;10368;51.436;6.774;2022-11-20T00:43:43;0.40;99.90
20418;DHT22;10368;51.436;6.774;2022-11-20T00:46:13;0.30;99.90
20418;DHT22;10368;51.436;6.774;2022-11-20T00:48:41;0.30;99.90
20418;DHT22;10368;51.436;6.774;2022-11-20T00:51:09;0.20;99.90
20418;DHT22;10368;51.436;6.774;2022-11-20T00:53:37;0.30;99.90
20418;DHT22;10368;51.436;6.774;2022-11-20T00:56:06;0.30;99.90
20418;DHT22;10368;51.436;6.774;2022-11-20T00:58:38;0.30;99.90
20418;DHT22;10368;51.436;6.774;2022-11-20T01:01:20;0.30;99.90
20418;DHT22;10368;51.436;6.774;2022-11-20T01:03:49;0.00;99.90
20418;DHT22;10368;51.436;6.774;2022-11-20T01:06:31;0.00;99.90
20418;DHT22;10368;51.436;6.774;2022-11-20T01:09:02;0.10;99.90
20418;DHT22;10368;51.436;6.774;2022-11-20T01:11:32;0.10;99.90
20418;DHT22;10368;51.436;6.774;2022-11-20T01:14:00;0.00;99.90
20418;DHT22;10368;51.436;6.774;2022-11-20T01:16:31;0.00;99.90
20418;DHT22;10368;51.436;6.774;2022-11-20T01:19:00;0.10;99.90
20418;DHT22;10368;51.436;6.774;2022-11-20T01:21:30;0.00;99.90
20418;DHT22;10368;51.436;6.774;2022-11-20T01:23:57;0.20;99.90
20418;DHT22;10368;51.436;6.774;2022-11-20T01:26:27;0.10;99.90
20418;DHT22;10368;51.436;6.774;2022-11-20T01:28:55;0.00;99.90
20418;DHT22;10368;51.436;6.774;2022-11-20T01:33:54;0.10;99.90
20418;DHT22;10368;51.436;6.774;2022-11-20T01:36:24;0.10;99.90
20418;DHT22;10368;51.436;6.774;2022-11-20T01:38:53;0.20;99.90
20418;DHT22;10368;51.436;6.774;2022-11-20T01:41:21;0.20;99.90
20418;DHT22;10368;51.436;6.774;2022-11-20T01:44:11;0.40;99.90
20418;DHT22;10368;51.436;6.774;2022-11-20T01:46:42;0.30;99.90
20418;DHT22;10368;51.436;6.774;2022-11-20T01:51:45;0.10;99.90
20418;DHT22;10368;51.436;6.774;2022-11-20T01:54:19;0.20;99.90
20418;DHT22;10368;51.436;6.774;2022-11-20T01:56:47;0.20;99.90
20418;DHT22;10368;51.436;6.774;2022-11-20T01:59:17;0.20;99.90
20418;DHT22;10368;51.436;6.774;2022-11-20T02:01:46;0.40;99.90
20418;DHT22;10368;51.436;6.774;2022-11-20T02:04:13;0.40;99.90
20418;DHT22;10368;51.436;6.774;2022-11-20T02:06:48;0.50;99.90
20418;DHT22;10368;51.436;6.774;2022-11-20T02:09:16;0.40;99.90
20418;DHT22;10368;51.436;6.774;2022-11-20T02:11:43;0.40;99.90
20418;DHT22;10368;51.436;6.774;2022-11-20T02:14:10;0.40;99.90
20418;DHT22;10368;51.436;6.774;2022-11-20T02:16:41;0.40;99.90
20418;DHT22;10368;51.436;6.774;2022-11-20T02:19:26;0.50;99.90
20418;DHT22;10368;51.436;6.774;2022-11-20T02:24:25;0.40;99.90
20418;DHT22;10368;51.436;6.774;2022-11-20T02:27:06;0.30;99.90
20418;DHT22;10368;51.436;6.774;2022-11-20T02:29:50;0.30;99.90
20418;DHT22;10368;51.436;6.774;2022-11-20T02:32:23;0.50;99.90
20418;DHT22;10368;51.436;6.774;2022-11-20T02:34:50;0.40;99.90
20418;DHT22;10368;51.436;6.774;2022-11-20T02:37:18;0.50;99.90
20418;DHT22;10368;51.436;6.774;2022-11-20T02:39:47;0.50;99.90
20418;DHT22;10368;51.436;6.774;2022-11-20T02:42:15;0.50;99.90
20418;DHT22;10368;51.436;6.774;2022-11-20T02:44:42;0.50;99.90
20418;DHT22;10368;51.436;6.774;2022-11-20T02:47:09;0.70;99.90
20418;DHT22;10368;51.436;6.774;2022-11-20T02:49:36;0.70;99.90
20418;DHT22;10368;51.436;6.774;2022-11-20T02:52:03;0.70;99.90
20418;DHT22;10368;51.436;6.774;2022-11-20T02:54:30;0.60;99.90
20418;DHT22;10368;51.436;6.774;2022-11-20T02:56:58;0.60;99.90
20418;DHT22;10368;51.436;6.774;2022-11-20T02:59:24;0.60;99.90
20418;DHT22;10368;51.436;6.774;2022-11-20T10:29:15;0.70;99.90
20418;DHT22;10368;51.436;6.774;2022-11-20T10:31:47;4.00;99.90
20418;DHT22;10368;51.436;6.774;2022-11-20T10:34:53;3.90;99.90
20418;DHT22;10368;51.436;6.774;2022-11-20T10:37:25;4.00;99.90
20418;DHT22;10368;51.436;6.774;2022-11-20T10:42:46;4.10;99.90
20418;DHT22;10368;51.436;6.774;2022-11-20T10:47:50;4.20;99.90
20418;DHT22;10368;51.436;6.774;2022-11-20T10:50:19;4.20;99.90
20418;DHT22;10368;51.436;6.774;2022-11-20T11:00:38;4.20;99.90
20418;DHT22;10368;51.436;6.774;2022-11-20T11:03:27;4.30;99.90
20418;DHT22;10368;51.436;6.774;2022-11-20T11:08:43;4.30;99.90
20418;DHT22;10368;51.436;6.774;2022-11-20T11:11:31;4.30;99.90
20418;DHT22;10368;51.436;6.774;2022-11-20T11:14:15;4.30;99.90
20418;DHT22;10368;51.436;6.774;2022-11-20T11:16:56;4.20;99.90
20418;DHT22;10368;51.436;6.774;2022-11-20T11:19:23;4.20;99.90
20418;DHT22;10368;51.436;6.774;2022-11-20T11:21:55;4.30;99.90
20418;DHT22;10368;51.436;6.774;2022-11-20T11:24:26;4.30;99.90
20418;DHT22;10368;51.436;6.774;2022-11-20T11:27:14;4.30;99.90
20418;DHT22;10368;51.436;6.774;2022-11-20T11:29:45;4.30;99.90
20418;DHT22;10368;51.436;6.774;2022-11-20T11:34:40;4.40;99.90
20418;DHT22;10368;51.436;6.774;2022-11-20T11:37:33;4.50;99.90
20418;DHT22;10368;51.436;6.774;2022-11-20T11:40:03;4.50;99.90
20418;DHT22;10368;51.436;6.774;2022-11-20T11:42:59;4.40;99.90
20418;DHT22;10368;51.436;6.774;2022-11-20T11:45:28;4.50;99.90
20418;DHT22;10368;51.436;6.774;2022-11-20T11:47:58;4.50;99.90
20418;DHT22;10368;51.436;6.774;2022-11-20T11:50:28;4.50;99.90
20418;DHT22;10368;51.436;6.774;2022-11-20T11:53:14;4.60;99.90
20418;DHT22;10368;51.436;6.774;2022-11-20T11:58:34;4.70;99.90
20418;DHT22;10368;51.436;6.774;2022-11-20T12:07:01;4.70;99.90
20418;DHT22;10368;51.436;6.774;2022-11-20T12:09:53;4.70;99.90
20418;DHT22;10368;51.436;6.774;2022-11-20T12:12:27;4.70;99.90
20418;DHT22;10368;51.436;6.774;2022-11-20T12:14:57;4.70;99.90
20418;DHT22;10368;51.436;6.774;2022-11-20T12:17:24;4.70;99.90
20418;DHT22;10368;51.436;6.774;2022-11-20T12:19:51;4.70;99.90
20418;DHT22;10368;51.436;6.774;2022-11-20T12:25:18;4.70;99.90
20418;DHT22;10368;51.436;6.774;2022-11-20T12:30:19;4.80;99.90
20418;DHT22;10368;51.436;6.774;2022-11-20T12:32:56;4.90;99.90
20418;DHT22;10368;51.436;6.774;2022-11-20T12:41:17;5.00;99.90
20418;DHT22;10368;51.436;6.774;2022-11-20T13:02:01;5.00;99.90
20418;DHT22;10368;51.436;6.774;2022-11-20T13:07:14;5.00;99.90
20418;DHT22;10368;51.436;6.774;2022-11-20T13:09:46;5.00;99.90
20418;DHT22;10368;51.436;6.774;2022-11-20T13:12:30;5.00;99.90
20418;DHT22;10368;51.436;6.774;2022-11-20T13:17:57;4.90;99.90
20418;DHT22;10368;51.436;6.774;2022-11-20T13:20:24;4.90;99.90
20418;DHT22;10368;51.436;6.774;2022-11-20T13:22:53;4.90;99.90
20418;DHT22;10368;51.436;6.774;2022-11-20T13:28:03;4.90;99.90
20418;DHT22;10368;51.436;6.774;2022-11-20T13:30:31;5.00;99.90
20418;DHT22;10368;51.436;6.774;2022-11-20T13:33:08;4.90;99.90
20418;DHT22;10368;51.436;6.774;2022-11-20T13:35:42;4.90;99.90
20418;DHT22;10368;51.436;6.774;2022-11-20T13:38:11;4.90;99.90
20418;DHT22;10368;51.436;6.774;2022-11-20T13:43:42;4.90;99.90
20418;DHT22;10368;51.436;6.774;2022-11-20T13:46:11;4.90;99.90
20418;DHT22;10368;51.436;6.774;2022-11-20T13:48:45;4.90;99.90
20418;DHT22;10368;51.436;6.774;2022-11-20T13:51:43;4.90;99.90
20418;DHT22;10368;51.436;6.774;2022-11-20T14:00:19;4.90;99.90
20418;DHT22;10368;51.436;6.774;2022-11-20T14:05:40;4.90;99.90
20418;DHT22;10368;51.436;6.774;2022-11-20T14:08:25;4.90;99.90
20418;DHT22;10368;51.436;6.774;2022-11-20T14:14:19;4.90;99.90
20418;DHT22;10368;51.436;6.774;2022-11-20T14:16:49;4.90;99.90
20418;DHT22;10368;51.436;6.774;2022-11-20T14:19:30;4.90;99.90
20418;DHT22;10368;51.436;6.774;2022-11-20T14:24:40;4.90;99.90
20418;DHT22;10368;51.436;6.774;2022-11-20T14:27:20;4.90;99.90
20418;DHT22;10368;51.436;6.774;2022-11-20T14:29:49;4.80;99.90
20418;DHT22;10368;51.436;6.774;2022-11-20T14:32:22;4.80;99.90
20418;DHT22;10368;51.436;6.774;2022-11-20T14:34:51;4.90;99.90
20418;DHT22;10368;51.436;6.774;2022-11-20T14:37:29;4.90;99.90
20418;DHT22;10368;51.436;6.774;2022-11-20T14:39:58;5.00;99.90
20418;DHT22;10368;51.436;6.774;2022-11-20T14:42:26;5.00;99.90
20418;DHT22;10368;51.436;6.774;2022-11-20T14:44:58;4.90;99.90
20418;DHT22;10368;51.436;6.774;2022-11-20T14:47:29;4.90;99.90
20418;DHT22;10368;51.436;6.774;2022-11-20T14:49:58;4.90;99.90
20418;DHT22;10368;51.436;6.774;2022-11-20T14:52:31;4.90;99.90
20418;DHT22;10368;51.436;6.774;2022-11-20T14:54:58;4.90;99.90
20418;DHT22;10368;51.436;6.774;2022-11-20T14:57:32;5.00;99.90
20418;DHT22;10368;51.436;6.774;2022-11-20T15:02:49;4.90;99.90
20418;DHT22;10368;51.436;6.774;2022-11-20T15:05:18;4.90;99.90
20418;DHT22;10368;51.436;6.774;2022-11-20T15:07:48;4.90;99.90
20418;DHT22;10368;51.436;6.774;2022-11-20T15:10:22;4.90;99.90
20418;DHT22;10368;51.436;6.774;2022-11-20T15:13:01;5.00;99.90
20418;DHT22;10368;51.436;6.774;2022-11-20T15:15:48;5.00;99.90
20418;DHT22;10368;51.436;6.774;2022-11-20T15:18:32;5.00;99.90
20418;DHT22;10368;51.436;6.774;2022-11-20T15:21:06;4.90;99.90
20418;DHT22;10368;51.436;6.774;2022-11-20T15:23:36;4.90;99.90
20418;DHT22;10368;51.436;6.774;2022-11-20T15:26:07;4.90;99.90
20418;DHT22;10368;51.436;6.774;2022-11-20T15:28:42;4.90;99.90
20418;DHT22;10368;51.436;6.774;2022-11-20T15:31:13;4.90;99.90
20418;DHT22;10368;51.436;6.774;2022-11-20T15:33:43;4.90;99.90
20418;DHT22;10368;51.436;6.774;2022-11-20T15:36:10;5.00;99.90
20418;DHT22;10368;51.436;6.774;2022-11-20T15:38:37;5.00;99.90
20418;DHT22;10368;51.436;6.774;2022-11-20T15:41:04;4.90;99.90
20418;DHT22;10368;51.436;6.774;2022-11-20T15:43:30;4.90;99.90
20418;DHT22;10368;51.436;6.774;2022-11-20T15:46:06;4.90;99.90
20418;DHT22;10368;51.436;6.774;2022-11-20T15:48:42;4.90;99.90
20418;DHT22;10368;51.436;6.774;2022-11-20T15:51:29;4.90;99.90
20418;DHT22;10368;51.436;6.774;2022-11-20T15:53:57;4.90;99.90
20418;DHT22;10368;51.436;6.774;2022-11-20T15:56:25;5.00;99.90
20418;DHT22;10368;51.436;6.774;2022-11-20T15:58:52;5.00;99.90
20418;DHT22;10368;51.436;6.774;2022-11-20T16:01:21;5.00;99.90
20418;DHT22;10368;51.436;6.774;2022-11-20T16:03:49;4.90;99.90
20418;DHT22;10368;51.436;6.774;2022-11-20T16:06:16;4.90;99.90
20418;DHT22;10368;51.436;6.774;2022-11-20T16:08:43;4.90;99.90
20418;DHT22;10368;51.436;6.774;2022-11-20T16:11:15;4.90;99.90
20418;DHT22;10368;51.436;6.774;2022-11-20T16:13:42;5.00;99.90
20418;DHT22;10368;51.436;6.774;2022-11-20T16:16:36;5.00;99.90
20418;DHT22;10368;51.436;6.774;2022-11-20T16:19:03;5.00;99.90
20418;DHT22;10368;51.436;6.774;2022-11-20T16:21:31;5.00;99.90
20418;DHT22;10368;51.436;6.774;2022-11-20T16:24:02;4.90;99.90
20418;DHT22;10368;51.436;6.774;2022-11-20T16:26:30;5.00;99.90
20418;DHT22;10368;51.436;6.774;2022-11-20T16:29:02;5.00;99.90
20418;DHT22;10368;51.436;6.774;2022-11-20T16:31:30;5.00;99.90
20418;DHT22;10368;51.436;6.774;2022-11-20T16:33:58;5.00;99.90
20418;DHT22;10368;51.436;6.774;2022-11-20T16:36:27;5.00;99.90
20418;DHT22;10368;51.436;6.774;2022-11-20T16:39:03;5.00;99.90
20418;DHT22;10368;51.436;6.774;2022-11-20T16:41:33;4.90;99.90
20418;DHT22;10368;51.436;6.774;2022-11-20T16:44:01;5.00;99.90
20418;DHT22;10368;51.436;6.774;2022-11-20T16:46:31;5.00;99.90
20418;DHT22;10368;51.436;6.774;2022-11-20T16:48:59;5.00;99.90
20418;DHT22;10368;51.436;6.774;2022-11-20T16:51:28;5.00;99.90
20418;DHT22;10368;51.436;6.774;2022-11-20T16:53:55;5.00;99.90
20418;DHT22;10368;51.436;6.774;2022-11-20T16:56:26;5.10;99.90
20418;DHT22;10368;51.436;6.774;2022-11-20T16:58:55;5.10;99.90
20418;DHT22;10368;51.436;6.774;2022-11-20T17:01:23;5.10;99.90
20418;DHT22;10368;51.436;6.774;2022-11-20T17:04:04;5.10;99.90
20418;DHT22;10368;51.436;6.774;2022-11-20T17:06:33;5.10;99.90
20418;DHT22;10368;51.436;6.774;2022-11-20T17:09:01;5.10;99.90
20418;DHT22;10368;51.436;6.774;2022-11-20T17:11:28;5.30;99.90
20418;DHT22;10368;51.436;6.774;2022-11-20T17:13:56;5.20;99.90
20418;DHT22;10368;51.436;6.774;2022-11-20T17:16:23;5.20;99.90
20418;DHT22;10368;51.436;6.774;2022-11-20T17:18:50;5.20;99.90
20418;DHT22;10368;51.436;6.774;2022-11-20T17:21:26;5.20;99.90
20418;DHT22;10368;51.436;6.774;2022-11-20T17:23:55;5.20;99.90
20418;DHT22;10368;51.436;6.774;2022-11-20T17:26:23;5.20;99.90
20418;DHT22;10368;51.436;6.774;2022-11-20T17:29:07;5.20;99.90
20418;DHT22;10368;51.436;6.774;2022-11-20T17:31:36;5.20;99.90
20418;DHT22;10368;51.436;6.774;2022-11-20T17:34:07;5.30;99.90
20418;DHT22;10368;51.436;6.774;2022-11-20T17:36:37;5.30;99.90
20418;DHT22;10368;51.436;6.774;2022-11-20T17:39:12;5.30;99.90
20418;DHT22;10368;51.436;6.774;2022-11-20T17:41:40;5.40;99.90
20418;DHT22;10368;51.436;6.774;2022-11-20T17:44:09;5.40;99.90
20418;DHT22;10368;51.436;6.774;2022-11-20T17:46:39;5.40;99.90
20418;DHT22;10368;51.436;6.774;2022-11-20T17:49:06;5.40;99.90
20418;DHT22;10368;51.436;6.774;2022-11-20T17:51:34;5.40;99.90
20418;DHT22;10368;51.436;6.774;2022-11-20T17:54:03;5.40;99.90
20418;DHT22;10368;51.436;6.774;2022-11-20T17:56:34;5.40;99.90
20418;DHT22;10368;51.436;6.774;2022-11-20T17:59:20;5.50;99.90
20418;DHT22;10368;51.436;6.774;2022-11-20T18:01:48;5.50;99.90
20418;DHT22;10368;51.436;6.774;2022-11-20T18:04:15;5.50;99.90
20418;DHT22;10368;51.436;6.774;2022-11-20T18:06:42;5.50;99.90
20418;DHT22;10368;51.436;6.774;2022-11-20T18:09:09;5.60;99.90
20418;DHT22;10368;51.436;6.774;2022-11-20T18:11:38;5.50;99.90
20418;DHT22;10368;51.436;6.774;2022-11-20T18:14:11;5.60;99.90
20418;DHT22;10368;51.436;6.774;2022-11-20T18:19:34;5.70;99.90
20418;DHT22;10368;51.436;6.774;2022-11-20T18:22:08;5.70;99.90
20418;DHT22;10368;51.436;6.774;2022-11-20T18:24:35;5.70;99.90
20418;DHT22;10368;51.436;6.774;2022-11-20T18:27:03;5.70;99.90
20418;DHT22;10368;51.436;6.774;2022-11-20T18:29:31;5.80;99.90
20418;DHT22;10368;51.436;6.774;2022-11-20T18:31:58;5.80;99.90
20418;DHT22;10368;51.436;6.774;2022-11-20T18:34:26;5.80;99.90
20418;DHT22;10368;51.436;6.774;2022-11-20T18:36:53;5.80;99.90
20418;DHT22;10368;51.436;6.774;2022-11-20T18:39:20;5.80;99.90
20418;DHT22;10368;51.436;6.774;2022-11-20T18:41:47;5.80;99.90
20418;DHT22;10368;51.436;6.774;2022-11-20T18:44:33;5.80;99.90
20418;DHT22;10368;51.436;6.774;2022-11-20T18:47:24;5.90;99.90
20418;DHT22;10368;51.436;6.774;2022-11-20T18:49:54;5.90;99.90
20418;DHT22;10368;51.436;6.774;2022-11-20T18:52:29;6.00;99.90
20418;DHT22;10368;51.436;6.774;2022-11-20T18:55:03;6.00;99.90
20418;DHT22;10368;51.436;6.774;2022-11-20T18:57:30;6.00;99.90
20418;DHT22;10368;51.436;6.774;2022-11-20T18:59:58;6.00;99.90
20418;DHT22;10368;51.436;6.774;2022-11-20T19:02:35;6.00;99.90
20418;DHT22;10368;51.436;6.774;2022-11-20T19:05:09;6.10;99.90
20418;DHT22;10368;51.436;6.774;2022-11-20T19:07:36;6.10;99.90
20418;DHT22;10368;51.436;6.774;2022-11-20T19:10:03;6.10;99.90
20418;DHT22;10368;51.436;6.774;2022-11-20T19:12:31;6.10;99.90
20418;DHT22;10368;51.436;6.774;2022-11-20T19:14:57;6.10;99.90
20418;DHT22;10368;51.436;6.774;2022-11-20T19:17:24;6.20;99.90
20418;DHT22;10368;51.436;6.774;2022-11-20T19:19:51;6.20;99.90
20418;DHT22;10368;51.436;6.774;2022-11-20T19:22:20;6.20;99.90
20418;DHT22;10368;51.436;6.774;2022-11-20T19:24:47;6.20;99.90
20418;DHT22;10368;51.436;6.774;2022-11-20T19:27:14;6.30;99.90
20418;DHT22;10368;51.436;6.774;2022-11-20T19:29:41;6.30;99.90
20418;DHT22;10368;51.436;6.774;2022-11-20T19:32:08;6.40;99.90
20418;DHT22;10368;51.436;6.774;2022-11-20T19:34:35;6.50;99.90
20418;DHT22;10368;51.436;6.774;2022-11-20T19:41:56;6.60;99.90
20418;DHT22;10368;51.436;6.774;2022-11-20T19:44:23;7.00;99.90
20418;DHT22;10368;51.436;6.774;2022-11-20T19:46:49;7.00;99.90
20418;DHT22;10368;51.436;6.774;2022-11-20T19:49:16;7.10;99.90
